createdAt,value
2018-12-23T00:02:13.023Z,67.79
2018-12-23T00:07:17.867Z,67.49
2018-12-23T00:12:24.133Z,67.28
2018-12-23T00:17:29.111Z,67.04
2018-12-23T00:22:33.970Z,67.12
2018-12-23T00:27:39.483Z,66.86
2018-12-23T00:32:44.552Z,67.18
2018-12-23T00:37:49.523Z,67.57
2018-12-23T00:42:54.593Z,68.05
2018-12-23T00:47:59.903Z,67.71
2018-12-23T00:53:06.074Z,67.36
2018-12-23T00:58:11.149Z,66.96
2018-12-23T01:03:16.270Z,66.64
2018-12-23T01:08:21.089Z,66.41
2018-12-23T01:13:26.299Z,66.22
2018-12-23T01:18:31.120Z,66.22
2018-12-23T01:23:36.365Z,66.76
2018-12-23T01:28:42.072Z,67.71
2018-12-23T01:33:47.086Z,67.91
2018-12-23T01:38:51.945Z,67.78
2018-12-23T01:43:57.467Z,68.03
2018-12-23T01:49:03.019Z,67.43
2018-12-23T01:54:07.838Z,66.77
2018-12-23T01:59:13.078Z,67.38
2018-12-23T02:04:18.201Z,66.55
2018-12-23T02:09:23.055Z,66.82
2018-12-23T02:14:28.110Z,66.04
2018-12-23T02:19:32.973Z,66.39
2018-12-23T02:24:43.238Z,66.01
2018-12-23T02:29:48.129Z,67.04
2018-12-23T02:34:52.929Z,67.21
2018-12-23T02:39:57.718Z,67.39
2018-12-23T02:45:02.854Z,67.17
2018-12-23T02:50:10.272Z,67.10
2018-12-23T02:55:14.989Z,67.75
2018-12-23T03:00:29.773Z,68.50
2018-12-23T03:05:34.580Z,68.63
2018-12-23T03:10:39.416Z,68.18
2018-12-23T03:15:44.470Z,68.40
2018-12-23T03:20:49.355Z,68.89
2018-12-23T03:25:54.142Z,69.35
2018-12-23T03:30:59.010Z,68.72
2018-12-23T03:36:04.555Z,69.12
2018-12-23T03:41:09.415Z,68.46
2018-12-23T03:46:14.172Z,68.72
2018-12-23T03:51:19.018Z,68.47
2018-12-23T03:56:26.577Z,68.95
2018-12-23T04:01:31.387Z,69.26
2018-12-23T04:06:36.723Z,68.98
2018-12-23T04:11:41.578Z,68.37
2018-12-23T04:16:46.298Z,68.77
2018-12-23T04:21:51.181Z,68.25
2018-12-23T04:26:56.643Z,68.37
2018-12-23T04:32:02.904Z,68.03
2018-12-23T04:37:07.770Z,67.97
2018-12-23T04:42:12.721Z,68.37
2018-12-23T04:47:17.599Z,68.81
2018-12-23T04:52:23.425Z,68.50
2018-12-23T04:57:28.376Z,68.83
2018-12-23T05:02:33.243Z,68.00
2018-12-23T05:13:06.564Z,67.45
2018-12-23T05:18:11.762Z,67.76
2018-12-23T05:23:16.592Z,69.04
2018-12-23T05:28:21.772Z,68.05
2018-12-23T05:33:26.649Z,67.11
2018-12-23T05:38:32.716Z,67.82
2018-12-23T05:43:38.541Z,68.14
2018-12-23T05:48:43.964Z,68.00
2018-12-23T05:53:49.175Z,69.06
2018-12-23T05:58:54.624Z,69.10
2018-12-23T06:03:59.572Z,68.91
2018-12-23T06:09:06.029Z,69.05
2018-12-23T06:14:11.284Z,68.67
2018-12-23T06:19:17.270Z,68.54
2018-12-23T06:24:22.178Z,68.53
2018-12-23T06:29:27.778Z,67.98
2018-12-23T06:34:33.134Z,68.34
2018-12-23T06:39:39.075Z,69.59
2018-12-23T06:44:44.672Z,69.45
2018-12-23T06:49:49.612Z,69.15
2018-12-23T06:54:54.774Z,68.37
2018-12-23T07:00:00.264Z,68.82
2018-12-23T07:05:08.055Z,68.62
2018-12-23T07:10:12.972Z,68.95
2018-12-23T07:15:18.652Z,69.77
2018-12-23T07:20:23.523Z,69.95
2018-12-23T07:25:28.665Z,70.56
2018-12-23T07:30:33.478Z,70.34
2018-12-23T07:35:38.337Z,69.83
2018-12-23T07:40:43.328Z,70.35
2018-12-23T07:45:48.659Z,69.51
2018-12-23T07:50:53.920Z,69.45
2018-12-23T07:55:59.464Z,69.33
2018-12-23T08:01:05.386Z,68.35
2018-12-23T08:06:10.499Z,68.35
2018-12-23T08:11:15.603Z,68.02
2018-12-23T08:16:20.950Z,67.21
2018-12-23T08:21:25.775Z,67.42
2018-12-23T08:26:30.565Z,66.54
2018-12-23T08:31:36.050Z,65.78
2018-12-23T08:36:43.293Z,65.57
2018-12-23T08:41:48.066Z,67.05
2018-12-23T08:46:52.888Z,66.46
2018-12-23T08:51:59.043Z,66.52
2018-12-23T08:57:05.212Z,67.37
2018-12-23T09:02:10.142Z,67.31
2018-12-23T09:07:15.007Z,66.37
2018-12-23T09:12:19.843Z,66.33
2018-12-23T09:17:24.836Z,65.20
2018-12-23T09:22:29.717Z,64.68
2018-12-23T09:27:35.539Z,64.75
2018-12-23T09:32:40.377Z,64.53
2018-12-23T09:37:45.819Z,64.01
2018-12-23T09:42:50.971Z,63.31
2018-12-23T09:47:56.052Z,63.21
2018-12-23T09:53:01.549Z,62.20
2018-12-23T09:58:06.597Z,62.12
2018-12-23T10:03:12.420Z,62.60
2018-12-23T10:08:18.268Z,62.18
2018-12-23T10:13:23.406Z,62.15
2018-12-23T10:23:58.048Z,61.83
2018-12-23T10:29:05.226Z,61.28
2018-12-23T10:34:10.931Z,61.15
2018-12-23T10:39:16.873Z,61.20
2018-12-23T10:44:22.398Z,61.01
2018-12-23T10:49:28.238Z,60.98
2018-12-23T10:54:33.483Z,60.43
2018-12-23T11:05:41.161Z,60.92
2018-12-23T11:10:47.716Z,60.50
2018-12-23T11:15:58.322Z,60.14
2018-12-23T11:21:07.051Z,59.97
2018-12-23T11:26:14.953Z,59.75
2018-12-23T11:31:21.280Z,60.49
2018-12-23T11:36:27.603Z,60.15
2018-12-23T11:41:34.010Z,60.30
2018-12-23T11:46:43.259Z,59.89
2018-12-23T11:51:49.569Z,60.19
2018-12-23T11:56:55.888Z,60.32
2018-12-23T12:02:03.436Z,59.52
2018-12-23T12:07:09.819Z,59.59
2018-12-23T12:12:16.191Z,60.14
2018-12-23T12:17:25.384Z,59.32
2018-12-23T12:22:31.817Z,59.53
2018-12-23T12:27:38.291Z,59.10
2018-12-23T12:32:44.600Z,58.61
2018-12-23T12:37:50.935Z,58.88
2018-12-23T12:42:57.320Z,58.10
2018-12-23T12:48:07.863Z,58.32
2018-12-23T12:53:14.661Z,58.00
2018-12-23T12:58:22.605Z,58.04
2018-12-23T13:03:28.963Z,58.58
2018-12-23T13:08:35.272Z,59.00
2018-12-23T13:13:42.092Z,60.76
2018-12-23T13:18:48.384Z,59.25
2018-12-23T13:23:54.714Z,59.82
2018-12-23T13:29:05.067Z,60.84
2018-12-23T13:34:11.619Z,57.79
2018-12-23T13:39:22.083Z,57.51
2018-12-23T13:45:06.890Z,57.99
2018-12-23T13:51:01.758Z,57.99
2018-12-23T13:57:02.471Z,57.97
2018-12-23T14:02:45.577Z,58.83
2018-12-23T14:08:38.629Z,58.95
2018-12-23T14:13:46.066Z,59.13
2018-12-23T14:18:52.345Z,59.05
2018-12-23T14:23:58.796Z,59.76
2018-12-23T14:29:06.711Z,60.32
2018-12-23T14:34:13.887Z,60.66
2018-12-23T14:39:27.024Z,60.52
2018-12-23T14:44:29.211Z,61.18
2018-12-23T14:54:44.005Z,62.09
2018-12-23T14:59:50.352Z,62.64
2018-12-23T15:04:56.434Z,63.12
2018-12-23T15:10:09.614Z,62.63
2018-12-23T15:15:16.062Z,62.84
2018-12-23T15:20:22.367Z,63.49
2018-12-23T15:25:30.536Z,63.06
2018-12-23T15:30:39.213Z,63.55
2018-12-23T15:35:46.823Z,64.44
2018-12-23T15:40:53.244Z,65.46
2018-12-23T15:45:59.518Z,65.96
2018-12-23T15:51:06.824Z,66.42
2018-12-23T15:56:16.056Z,65.83
2018-12-23T16:01:24.954Z,66.90
2018-12-23T16:06:32.884Z,67.22
2018-12-23T16:11:39.705Z,67.32
2018-12-23T16:16:49.007Z,66.65
2018-12-23T16:21:55.300Z,66.25
2018-12-23T16:27:03.483Z,65.98
2018-12-23T16:32:10.861Z,66.28
2018-12-23T16:37:19.112Z,66.05
2018-12-23T16:42:26.700Z,65.67
2018-12-23T16:47:36.076Z,65.86
2018-12-23T16:52:42.372Z,65.20
2018-12-23T16:57:53.338Z,66.80
2018-12-23T17:03:00.562Z,66.35
2018-12-23T17:08:12.440Z,65.82
2018-12-23T17:13:18.901Z,65.23
2018-12-23T17:18:28.104Z,65.26
2018-12-23T17:23:34.868Z,65.26
2018-12-23T17:28:42.710Z,65.20
2018-12-23T17:33:49.596Z,64.42
2018-12-23T17:38:57.998Z,64.67
2018-12-23T17:44:06.352Z,64.83
2018-12-23T17:49:12.645Z,65.17
2018-12-23T17:54:22.564Z,65.97
2018-12-23T17:59:30.717Z,66.15
2018-12-23T18:04:37.046Z,66.38
2018-12-23T18:09:46.658Z,67.64
2018-12-23T18:14:53.086Z,67.57
2018-12-23T18:20:01.335Z,67.41
2018-12-23T18:25:11.352Z,67.99
2018-12-23T18:30:18.388Z,67.17
2018-12-23T18:35:28.565Z,68.21
2018-12-23T18:40:38.065Z,67.61
2018-12-23T18:45:45.959Z,67.65
2018-12-23T18:50:52.688Z,67.90
2018-12-23T18:55:59.351Z,67.89
2018-12-23T19:01:08.366Z,68.32
2018-12-23T19:06:14.976Z,68.57
2018-12-23T19:12:04.321Z,67.71
2018-12-23T19:17:50.315Z,66.87
2018-12-23T19:23:47.017Z,68.42
2018-12-23T19:29:47.130Z,68.32
2018-12-23T19:35:45.987Z,69.39
2018-12-23T19:41:38.761Z,68.01
2018-12-23T19:47:43.623Z,68.38
2018-12-23T19:53:18.523Z,68.25
2018-12-23T19:59:07.957Z,68.68
2018-12-23T20:04:37.476Z,69.34
2018-12-23T20:10:31.905Z,71.04
2018-12-23T20:16:36.604Z,72.02
2018-12-23T20:22:29.620Z,71.41
2018-12-23T20:28:40.584Z,71.63
2018-12-23T20:34:15.718Z,71.51
2018-12-23T20:39:54.738Z,71.88
2018-12-23T20:45:50.827Z,71.45
2018-12-23T20:51:34.836Z,71.15
2018-12-23T20:57:25.436Z,70.57
2018-12-23T21:03:39.563Z,70.42
2018-12-23T21:09:22.397Z,70.76
2018-12-23T21:15:09.457Z,70.17
2018-12-23T21:20:56.357Z,69.80
2018-12-23T21:26:30.752Z,70.38
2018-12-23T21:32:33.273Z,70.22
2018-12-23T21:38:17.526Z,70.15
2018-12-23T21:43:59.213Z,70.50
2018-12-23T21:49:36.491Z,69.86
2018-12-23T21:55:23.986Z,70.18
2018-12-23T22:01:04.010Z,69.49
2018-12-23T22:06:46.475Z,69.92
2018-12-23T22:12:28.961Z,69.59
2018-12-23T22:17:35.936Z,70.72
2018-12-23T22:22:42.626Z,70.24
2018-12-23T22:27:50.272Z,70.58
2018-12-23T22:32:56.731Z,70.00
2018-12-23T22:38:04.829Z,69.40
2018-12-23T22:43:12.335Z,69.84
2018-12-23T22:48:18.701Z,69.07
2018-12-23T22:53:25.223Z,68.63
2018-12-23T22:58:31.442Z,67.75
2018-12-23T23:03:38.107Z,69.02
2018-12-23T23:13:49.741Z,72.01
2018-12-23T23:18:56.347Z,74.03
2018-12-23T23:24:02.723Z,74.03
2018-12-23T23:29:11.281Z,74.38
2018-12-23T23:34:17.771Z,73.90
2018-12-23T23:39:23.982Z,74.09
2018-12-23T23:44:30.433Z,74.11
2018-12-23T23:49:36.669Z,73.71
2018-12-23T23:54:43.797Z,72.64
2018-12-23T23:59:50.088Z,71.02
